sensor_id;sensor_type;location;lat;lon;timestamp;P1;durP1;ratioP1;P2;durP2;ratioP2
27618;SDS011;15039;50.830;4.730;2024-01-16T00:02:22;9.35;;;3.50;;
27618;SDS011;15039;50.830;4.730;2024-01-16T00:04:49;10.63;;;2.78;;
27618;SDS011;15039;50.830;4.730;2024-01-16T00:07:15;6.63;;;2.72;;
27618;SDS011;15039;50.830;4.730;2024-01-16T00:09:48;6.10;;;3.00;;
27618;SDS011;15039;50.830;4.730;2024-01-16T00:12:20;9.48;;;3.72;;
27618;SDS011;15039;50.830;4.730;2024-01-16T00:15:11;5.82;;;2.78;;
27618;SDS011;15039;50.830;4.730;2024-01-16T00:18:28;6.15;;;2.72;;
27618;SDS011;15039;50.830;4.730;2024-01-16T00:21:24;5.30;;;3.47;;
27618;SDS011;15039;50.830;4.730;2024-01-16T00:23:53;8.18;;;3.38;;
27618;SDS011;15039;50.830;4.730;2024-01-16T00:28:48;4.38;;;2.50;;
27618;SDS011;15039;50.830;4.730;2024-01-16T00:33:57;3.72;;;2.55;;
27618;SDS011;15039;50.830;4.730;2024-01-16T00:39:55;8.50;;;3.03;;
27618;SDS011;15039;50.830;4.730;2024-01-16T00:43:04;5.47;;;2.80;;
27618;SDS011;15039;50.830;4.730;2024-01-16T00:46:32;8.07;;;3.35;;
27618;SDS011;15039;50.830;4.730;2024-01-16T00:49:04;6.35;;;3.42;;
27618;SDS011;15039;50.830;4.730;2024-01-16T00:52:39;5.82;;;3.60;;
27618;SDS011;15039;50.830;4.730;2024-01-16T00:55:08;4.72;;;2.92;;
27618;SDS011;15039;50.830;4.730;2024-01-16T00:57:56;10.95;;;4.28;;
27618;SDS011;15039;50.830;4.730;2024-01-16T01:00:22;10.25;;;3.63;;
27618;SDS011;15039;50.830;4.730;2024-01-16T01:02:47;10.77;;;3.40;;
27618;SDS011;15039;50.830;4.730;2024-01-16T01:05:13;7.07;;;2.90;;
27618;SDS011;15039;50.830;4.730;2024-01-16T01:07:40;6.60;;;3.15;;
27618;SDS011;15039;50.830;4.730;2024-01-16T01:10:06;7.82;;;3.40;;
27618;SDS011;15039;50.830;4.730;2024-01-16T01:12:33;7.38;;;3.50;;
27618;SDS011;15039;50.830;4.730;2024-01-16T01:14:58;4.32;;;3.03;;
27618;SDS011;15039;50.830;4.730;2024-01-16T01:17:24;6.85;;;3.05;;
27618;SDS011;15039;50.830;4.730;2024-01-16T01:19:50;5.68;;;3.10;;
27618;SDS011;15039;50.830;4.730;2024-01-16T01:22:15;9.82;;;3.20;;
27618;SDS011;15039;50.830;4.730;2024-01-16T01:24:41;4.68;;;2.95;;
27618;SDS011;15039;50.830;4.730;2024-01-16T01:27:07;7.88;;;2.72;;
27618;SDS011;15039;50.830;4.730;2024-01-16T01:29:32;5.95;;;3.10;;
27618;SDS011;15039;50.830;4.730;2024-01-16T01:31:58;5.50;;;3.17;;
27618;SDS011;15039;50.830;4.730;2024-01-16T01:34:24;5.97;;;2.83;;
27618;SDS011;15039;50.830;4.730;2024-01-16T01:36:49;9.52;;;3.22;;
27618;SDS011;15039;50.830;4.730;2024-01-16T01:39:15;6.25;;;2.63;;
27618;SDS011;15039;50.830;4.730;2024-01-16T01:41:41;8.55;;;2.90;;
27618;SDS011;15039;50.830;4.730;2024-01-16T01:44:07;7.78;;;2.88;;
27618;SDS011;15039;50.830;4.730;2024-01-16T01:46:40;8.73;;;2.95;;
27618;SDS011;15039;50.830;4.730;2024-01-16T01:49:07;5.72;;;2.90;;
27618;SDS011;15039;50.830;4.730;2024-01-16T01:51:33;9.20;;;2.72;;
27618;SDS011;15039;50.830;4.730;2024-01-16T01:53:59;11.13;;;3.15;;
27618;SDS011;15039;50.830;4.730;2024-01-16T01:56:26;7.82;;;2.63;;
27618;SDS011;15039;50.830;4.730;2024-01-16T01:58:53;3.15;;;2.63;;
27618;SDS011;15039;50.830;4.730;2024-01-16T02:01:20;5.93;;;2.70;;
27618;SDS011;15039;50.830;4.730;2024-01-16T02:03:47;5.13;;;2.70;;
27618;SDS011;15039;50.830;4.730;2024-01-16T02:06:15;6.70;;;3.03;;
27618;SDS011;15039;50.830;4.730;2024-01-16T02:08:42;10.40;;;3.30;;
27618;SDS011;15039;50.830;4.730;2024-01-16T02:11:09;6.20;;;2.90;;
27618;SDS011;15039;50.830;4.730;2024-01-16T02:13:35;4.18;;;2.78;;
27618;SDS011;15039;50.830;4.730;2024-01-16T02:16:01;6.05;;;2.65;;
27618;SDS011;15039;50.830;4.730;2024-01-16T02:18:28;5.57;;;2.67;;
27618;SDS011;15039;50.830;4.730;2024-01-16T02:20:57;7.55;;;3.10;;
27618;SDS011;15039;50.830;4.730;2024-01-16T02:23:29;6.22;;;2.90;;
27618;SDS011;15039;50.830;4.730;2024-01-16T02:26:05;7.15;;;2.95;;
27618;SDS011;15039;50.830;4.730;2024-01-16T02:28:30;5.10;;;2.50;;
27618;SDS011;15039;50.830;4.730;2024-01-16T02:30:56;5.25;;;2.83;;
27618;SDS011;15039;50.830;4.730;2024-01-16T02:33:22;8.35;;;2.78;;
27618;SDS011;15039;50.830;4.730;2024-01-16T02:35:48;6.95;;;2.60;;
27618;SDS011;15039;50.830;4.730;2024-01-16T02:38:14;5.68;;;2.50;;
27618;SDS011;15039;50.830;4.730;2024-01-16T02:40:39;5.72;;;2.63;;
27618;SDS011;15039;50.830;4.730;2024-01-16T02:43:06;3.15;;;2.40;;
27618;SDS011;15039;50.830;4.730;2024-01-16T02:45:33;2.78;;;2.30;;
27618;SDS011;15039;50.830;4.730;2024-01-16T02:48:00;8.43;;;3.15;;
27618;SDS011;15039;50.830;4.730;2024-01-16T02:50:28;7.70;;;2.80;;
27618;SDS011;15039;50.830;4.730;2024-01-16T02:52:55;5.15;;;2.50;;
27618;SDS011;15039;50.830;4.730;2024-01-16T02:55:22;5.97;;;2.72;;
27618;SDS011;15039;50.830;4.730;2024-01-16T02:57:49;7.80;;;2.92;;
27618;SDS011;15039;50.830;4.730;2024-01-16T03:00:16;5.10;;;2.80;;
27618;SDS011;15039;50.830;4.730;2024-01-16T03:02:42;4.47;;;2.50;;
27618;SDS011;15039;50.830;4.730;2024-01-16T03:05:09;6.10;;;2.83;;
27618;SDS011;15039;50.830;4.730;2024-01-16T03:07:36;4.00;;;2.70;;
27618;SDS011;15039;50.830;4.730;2024-01-16T03:10:03;5.32;;;2.70;;
27618;SDS011;15039;50.830;4.730;2024-01-16T03:12:29;6.15;;;3.10;;
27618;SDS011;15039;50.830;4.730;2024-01-16T03:14:54;5.53;;;3.15;;
27618;SDS011;15039;50.830;4.730;2024-01-16T03:17:20;5.57;;;3.00;;
27618;SDS011;15039;50.830;4.730;2024-01-16T03:19:46;8.02;;;3.05;;
27618;SDS011;15039;50.830;4.730;2024-01-16T03:22:12;8.65;;;3.30;;
27618;SDS011;15039;50.830;4.730;2024-01-16T03:24:38;6.50;;;2.92;;
27618;SDS011;15039;50.830;4.730;2024-01-16T03:27:04;5.20;;;2.72;;
27618;SDS011;15039;50.830;4.730;2024-01-16T03:29:29;5.82;;;2.80;;
27618;SDS011;15039;50.830;4.730;2024-01-16T03:31:55;8.00;;;3.03;;
27618;SDS011;15039;50.830;4.730;2024-01-16T03:34:21;6.85;;;2.85;;
27618;SDS011;15039;50.830;4.730;2024-01-16T03:36:46;5.75;;;3.10;;
27618;SDS011;15039;50.830;4.730;2024-01-16T03:39:12;5.80;;;2.75;;
27618;SDS011;15039;50.830;4.730;2024-01-16T03:41:39;4.35;;;2.65;;
27618;SDS011;15039;50.830;4.730;2024-01-16T03:44:06;7.28;;;2.78;;
27618;SDS011;15039;50.830;4.730;2024-01-16T03:46:31;5.20;;;2.63;;
27618;SDS011;15039;50.830;4.730;2024-01-16T03:48:57;6.25;;;3.20;;
27618;SDS011;15039;50.830;4.730;2024-01-16T03:51:23;5.15;;;2.85;;
27618;SDS011;15039;50.830;4.730;2024-01-16T03:53:48;8.20;;;3.00;;
27618;SDS011;15039;50.830;4.730;2024-01-16T03:56:16;13.57;;;3.00;;
27618;SDS011;15039;50.830;4.730;2024-01-16T03:58:42;6.78;;;2.75;;
27618;SDS011;15039;50.830;4.730;2024-01-16T04:01:08;8.38;;;2.92;;
27618;SDS011;15039;50.830;4.730;2024-01-16T04:03:34;8.40;;;2.92;;
27618;SDS011;15039;50.830;4.730;2024-01-16T04:06:13;8.32;;;2.92;;
27618;SDS011;15039;50.830;4.730;2024-01-16T04:08:42;6.68;;;3.05;;
27618;SDS011;15039;50.830;4.730;2024-01-16T04:11:13;9.32;;;3.28;;
27618;SDS011;15039;50.830;4.730;2024-01-16T04:13:39;8.75;;;4.38;;
27618;SDS011;15039;50.830;4.730;2024-01-16T04:16:05;8.27;;;3.28;;
27618;SDS011;15039;50.830;4.730;2024-01-16T04:18:39;6.43;;;3.13;;
27618;SDS011;15039;50.830;4.730;2024-01-16T04:21:06;7.68;;;2.80;;
27618;SDS011;15039;50.830;4.730;2024-01-16T04:23:32;6.78;;;3.05;;
27618;SDS011;15039;50.830;4.730;2024-01-16T04:25:58;8.15;;;3.38;;
27618;SDS011;15039;50.830;4.730;2024-01-16T04:28:24;5.22;;;2.80;;
27618;SDS011;15039;50.830;4.730;2024-01-16T04:30:50;5.32;;;3.17;;
27618;SDS011;15039;50.830;4.730;2024-01-16T04:33:16;6.65;;;3.35;;
27618;SDS011;15039;50.830;4.730;2024-01-16T04:35:42;8.25;;;3.50;;
27618;SDS011;15039;50.830;4.730;2024-01-16T04:38:07;5.35;;;3.58;;
27618;SDS011;15039;50.830;4.730;2024-01-16T04:40:33;7.30;;;3.28;;
27618;SDS011;15039;50.830;4.730;2024-01-16T04:42:59;8.50;;;3.33;;
27618;SDS011;15039;50.830;4.730;2024-01-16T04:45:25;7.55;;;3.35;;
27618;SDS011;15039;50.830;4.730;2024-01-16T04:47:50;5.45;;;3.35;;
27618;SDS011;15039;50.830;4.730;2024-01-16T04:50:16;5.13;;;3.50;;
27618;SDS011;15039;50.830;4.730;2024-01-16T04:52:43;7.07;;;3.20;;
27618;SDS011;15039;50.830;4.730;2024-01-16T04:55:09;5.55;;;3.15;;
27618;SDS011;15039;50.830;4.730;2024-01-16T04:57:34;5.38;;;3.33;;
27618;SDS011;15039;50.830;4.730;2024-01-16T05:00:00;5.70;;;3.30;;
27618;SDS011;15039;50.830;4.730;2024-01-16T05:02:26;6.53;;;3.60;;
27618;SDS011;15039;50.830;4.730;2024-01-16T05:04:56;10.18;;;3.83;;
27618;SDS011;15039;50.830;4.730;2024-01-16T05:07:26;6.40;;;3.55;;
27618;SDS011;15039;50.830;4.730;2024-01-16T05:09:52;6.43;;;3.53;;
27618;SDS011;15039;50.830;4.730;2024-01-16T05:12:20;10.27;;;3.97;;
27618;SDS011;15039;50.830;4.730;2024-01-16T05:14:47;9.50;;;4.15;;
27618;SDS011;15039;50.830;4.730;2024-01-16T05:17:13;6.82;;;3.40;;
27618;SDS011;15039;50.830;4.730;2024-01-16T05:19:39;8.77;;;4.38;;
27618;SDS011;15039;50.830;4.730;2024-01-16T05:22:04;10.10;;;4.18;;
27618;SDS011;15039;50.830;4.730;2024-01-16T05:24:31;4.72;;;3.47;;
27618;SDS011;15039;50.830;4.730;2024-01-16T05:26:56;9.02;;;3.65;;
27618;SDS011;15039;50.830;4.730;2024-01-16T05:29:22;7.28;;;4.03;;
27618;SDS011;15039;50.830;4.730;2024-01-16T05:31:48;7.25;;;4.00;;
27618;SDS011;15039;50.830;4.730;2024-01-16T05:34:14;7.25;;;3.78;;
27618;SDS011;15039;50.830;4.730;2024-01-16T05:36:40;6.93;;;3.28;;
27618;SDS011;15039;50.830;4.730;2024-01-16T05:39:06;8.52;;;3.65;;
27618;SDS011;15039;50.830;4.730;2024-01-16T05:41:33;11.02;;;4.10;;
27618;SDS011;15039;50.830;4.730;2024-01-16T05:43:59;8.43;;;3.97;;
27618;SDS011;15039;50.830;4.730;2024-01-16T05:46:25;6.72;;;3.50;;
27618;SDS011;15039;50.830;4.730;2024-01-16T05:48:51;9.63;;;4.45;;
27618;SDS011;15039;50.830;4.730;2024-01-16T05:51:17;7.45;;;3.88;;
27618;SDS011;15039;50.830;4.730;2024-01-16T05:53:43;9.38;;;3.45;;
27618;SDS011;15039;50.830;4.730;2024-01-16T05:56:08;11.70;;;4.25;;
27618;SDS011;15039;50.830;4.730;2024-01-16T05:58:34;6.45;;;3.95;;
27618;SDS011;15039;50.830;4.730;2024-01-16T06:01:04;6.47;;;3.58;;
27618;SDS011;15039;50.830;4.730;2024-01-16T06:03:30;7.78;;;4.00;;
27618;SDS011;15039;50.830;4.730;2024-01-16T06:05:56;6.28;;;4.05;;
27618;SDS011;15039;50.830;4.730;2024-01-16T06:08:21;8.27;;;3.88;;
27618;SDS011;15039;50.830;4.730;2024-01-16T06:10:47;7.75;;;3.50;;
27618;SDS011;15039;50.830;4.730;2024-01-16T06:13:13;6.05;;;4.00;;
27618;SDS011;15039;50.830;4.730;2024-01-16T06:15:39;7.25;;;4.65;;
27618;SDS011;15039;50.830;4.730;2024-01-16T06:18:04;6.30;;;3.95;;
27618;SDS011;15039;50.830;4.730;2024-01-16T06:20:30;5.63;;;3.88;;
27618;SDS011;15039;50.830;4.730;2024-01-16T06:22:57;6.03;;;3.83;;
27618;SDS011;15039;50.830;4.730;2024-01-16T06:25:24;8.63;;;4.15;;
27618;SDS011;15039;50.830;4.730;2024-01-16T06:27:49;9.13;;;3.53;;
27618;SDS011;15039;50.830;4.730;2024-01-16T06:30:15;6.30;;;3.97;;
27618;SDS011;15039;50.830;4.730;2024-01-16T06:32:41;8.27;;;4.07;;
27618;SDS011;15039;50.830;4.730;2024-01-16T06:35:07;7.18;;;4.00;;
27618;SDS011;15039;50.830;4.730;2024-01-16T06:37:38;12.88;;;4.25;;
27618;SDS011;15039;50.830;4.730;2024-01-16T06:40:04;12.95;;;4.78;;
27618;SDS011;15039;50.830;4.730;2024-01-16T06:42:30;6.72;;;3.78;;
27618;SDS011;15039;50.830;4.730;2024-01-16T06:44:56;9.02;;;4.53;;
27618;SDS011;15039;50.830;4.730;2024-01-16T06:47:22;7.22;;;3.67;;
27618;SDS011;15039;50.830;4.730;2024-01-16T06:49:49;7.85;;;3.97;;
27618;SDS011;15039;50.830;4.730;2024-01-16T06:52:15;8.23;;;3.90;;
27618;SDS011;15039;50.830;4.730;2024-01-16T06:54:40;7.22;;;4.30;;
27618;SDS011;15039;50.830;4.730;2024-01-16T06:57:06;8.82;;;4.72;;
27618;SDS011;15039;50.830;4.730;2024-01-16T06:59:33;6.28;;;3.88;;
27618;SDS011;15039;50.830;4.730;2024-01-16T07:01:58;5.97;;;3.97;;
27618;SDS011;15039;50.830;4.730;2024-01-16T07:04:24;5.63;;;3.78;;
27618;SDS011;15039;50.830;4.730;2024-01-16T07:06:50;7.82;;;4.20;;
27618;SDS011;15039;50.830;4.730;2024-01-16T07:09:16;8.73;;;4.72;;
27618;SDS011;15039;50.830;4.730;2024-01-16T07:11:43;6.50;;;4.78;;
27618;SDS011;15039;50.830;4.730;2024-01-16T07:14:09;6.15;;;3.88;;
27618;SDS011;15039;50.830;4.730;2024-01-16T07:16:35;9.15;;;4.63;;
27618;SDS011;15039;50.830;4.730;2024-01-16T07:19:01;7.00;;;4.10;;
27618;SDS011;15039;50.830;4.730;2024-01-16T07:21:28;7.72;;;4.25;;
27618;SDS011;15039;50.830;4.730;2024-01-16T07:23:54;9.80;;;4.30;;
27618;SDS011;15039;50.830;4.730;2024-01-16T07:26:20;8.05;;;4.57;;
27618;SDS011;15039;50.830;4.730;2024-01-16T07:28:47;10.00;;;4.70;;
27618;SDS011;15039;50.830;4.730;2024-01-16T07:31:13;9.32;;;4.85;;
27618;SDS011;15039;50.830;4.730;2024-01-16T07:33:39;19.85;;;6.47;;
27618;SDS011;15039;50.830;4.730;2024-01-16T07:36:07;10.02;;;4.90;;
27618;SDS011;15039;50.830;4.730;2024-01-16T07:38:35;10.23;;;4.50;;
27618;SDS011;15039;50.830;4.730;2024-01-16T07:41:01;5.93;;;3.83;;
27618;SDS011;15039;50.830;4.730;2024-01-16T07:43:27;7.22;;;4.53;;
27618;SDS011;15039;50.830;4.730;2024-01-16T07:45:54;7.55;;;4.40;;
27618;SDS011;15039;50.830;4.730;2024-01-16T07:48:22;8.48;;;4.45;;
27618;SDS011;15039;50.830;4.730;2024-01-16T07:50:48;8.20;;;4.50;;
27618;SDS011;15039;50.830;4.730;2024-01-16T07:53:14;7.60;;;4.25;;
27618;SDS011;15039;50.830;4.730;2024-01-16T07:55:40;7.88;;;4.43;;
27618;SDS011;15039;50.830;4.730;2024-01-16T07:58:06;8.40;;;3.63;;
27618;SDS011;15039;50.830;4.730;2024-01-16T08:00:32;6.90;;;3.72;;
27618;SDS011;15039;50.830;4.730;2024-01-16T08:02:58;8.45;;;3.85;;
27618;SDS011;15039;50.830;4.730;2024-01-16T08:05:23;11.48;;;4.20;;
27618;SDS011;15039;50.830;4.730;2024-01-16T08:07:53;4.63;;;3.22;;
27618;SDS011;15039;50.830;4.730;2024-01-16T08:10:19;11.40;;;4.22;;
27618;SDS011;15039;50.830;4.730;2024-01-16T08:12:45;8.98;;;4.15;;
27618;SDS011;15039;50.830;4.730;2024-01-16T08:15:11;8.40;;;4.55;;
27618;SDS011;15039;50.830;4.730;2024-01-16T08:17:53;6.95;;;3.80;;
27618;SDS011;15039;50.830;4.730;2024-01-16T08:20:18;11.45;;;5.45;;
27618;SDS011;15039;50.830;4.730;2024-01-16T08:22:44;13.82;;;5.22;;
27618;SDS011;15039;50.830;4.730;2024-01-16T08:25:10;11.77;;;3.95;;
27618;SDS011;15039;50.830;4.730;2024-01-16T08:27:35;8.18;;;4.53;;
27618;SDS011;15039;50.830;4.730;2024-01-16T08:30:05;10.50;;;5.90;;
27618;SDS011;15039;50.830;4.730;2024-01-16T08:32:53;12.05;;;6.57;;
27618;SDS011;15039;50.830;4.730;2024-01-16T08:35:22;12.05;;;5.78;;
27618;SDS011;15039;50.830;4.730;2024-01-16T08:37:48;7.93;;;4.80;;
27618;SDS011;15039;50.830;4.730;2024-01-16T08:40:14;8.43;;;4.28;;
27618;SDS011;15039;50.830;4.730;2024-01-16T08:42:40;5.60;;;3.97;;
27618;SDS011;15039;50.830;4.730;2024-01-16T08:45:07;7.43;;;4.43;;
27618;SDS011;15039;50.830;4.730;2024-01-16T08:47:34;6.13;;;3.72;;
27618;SDS011;15039;50.830;4.730;2024-01-16T08:50:05;7.93;;;3.97;;
27618;SDS011;15039;50.830;4.730;2024-01-16T08:52:32;8.45;;;3.90;;
27618;SDS011;15039;50.830;4.730;2024-01-16T08:54:57;8.27;;;3.90;;
27618;SDS011;15039;50.830;4.730;2024-01-16T08:57:24;7.63;;;3.90;;
27618;SDS011;15039;50.830;4.730;2024-01-16T08:59:50;7.25;;;3.85;;
27618;SDS011;15039;50.830;4.730;2024-01-16T09:02:26;9.00;;;3.90;;
27618;SDS011;15039;50.830;4.730;2024-01-16T09:04:54;7.93;;;3.78;;
27618;SDS011;15039;50.830;4.730;2024-01-16T09:07:20;7.53;;;4.03;;
27618;SDS011;15039;50.830;4.730;2024-01-16T09:09:47;7.10;;;4.35;;
27618;SDS011;15039;50.830;4.730;2024-01-16T09:12:14;6.70;;;4.32;;
27618;SDS011;15039;50.830;4.730;2024-01-16T09:20:36;5.93;;;3.28;;
27618;SDS011;15039;50.830;4.730;2024-01-16T09:23:01;8.65;;;3.58;;
27618;SDS011;15039;50.830;4.730;2024-01-16T09:25:27;7.03;;;3.63;;
27618;SDS011;15039;50.830;4.730;2024-01-16T09:30:37;5.78;;;3.42;;
27618;SDS011;15039;50.830;4.730;2024-01-16T09:33:12;9.10;;;3.28;;
27618;SDS011;15039;50.830;4.730;2024-01-16T09:35:38;6.38;;;3.40;;
27618;SDS011;15039;50.830;4.730;2024-01-16T09:38:19;5.75;;;3.38;;
27618;SDS011;15039;50.830;4.730;2024-01-16T09:40:44;5.03;;;3.33;;
27618;SDS011;15039;50.830;4.730;2024-01-16T09:46:09;5.20;;;3.55;;
27618;SDS011;15039;50.830;4.730;2024-01-16T09:48:36;5.43;;;3.47;;
27618;SDS011;15039;50.830;4.730;2024-01-16T09:51:02;5.45;;;3.20;;
27618;SDS011;15039;50.830;4.730;2024-01-16T09:56:37;7.97;;;3.20;;
27618;SDS011;15039;50.830;4.730;2024-01-16T09:59:08;6.20;;;3.72;;
27618;SDS011;15039;50.830;4.730;2024-01-16T10:01:40;5.00;;;3.40;;
27618;SDS011;15039;50.830;4.730;2024-01-16T10:04:23;6.22;;;4.00;;
27618;SDS011;15039;50.830;4.730;2024-01-16T10:06:49;11.32;;;3.92;;
27618;SDS011;15039;50.830;4.730;2024-01-16T10:09:17;6.03;;;3.95;;
27618;SDS011;15039;50.830;4.730;2024-01-16T10:11:42;7.47;;;3.17;;
27618;SDS011;15039;50.830;4.730;2024-01-16T10:14:09;6.88;;;3.30;;
27618;SDS011;15039;50.830;4.730;2024-01-16T10:19:47;9.05;;;3.90;;
27618;SDS011;15039;50.830;4.730;2024-01-16T10:22:19;7.68;;;3.60;;
27618;SDS011;15039;50.830;4.730;2024-01-16T10:24:47;7.03;;;3.60;;
27618;SDS011;15039;50.830;4.730;2024-01-16T10:27:15;6.80;;;3.40;;
27618;SDS011;15039;50.830;4.730;2024-01-16T10:29:56;6.07;;;3.30;;
27618;SDS011;15039;50.830;4.730;2024-01-16T10:32:41;7.18;;;3.30;;
27618;SDS011;15039;50.830;4.730;2024-01-16T10:35:11;6.47;;;3.38;;
27618;SDS011;15039;50.830;4.730;2024-01-16T10:40:18;7.53;;;3.17;;
27618;SDS011;15039;50.830;4.730;2024-01-16T10:42:46;8.48;;;3.67;;
27618;SDS011;15039;50.830;4.730;2024-01-16T10:45:22;5.50;;;3.20;;
27618;SDS011;15039;50.830;4.730;2024-01-16T10:47:50;10.40;;;4.07;;
27618;SDS011;15039;50.830;4.730;2024-01-16T10:50:30;7.60;;;3.75;;
27618;SDS011;15039;50.830;4.730;2024-01-16T10:52:56;11.30;;;4.28;;
27618;SDS011;15039;50.830;4.730;2024-01-16T10:55:26;7.22;;;3.63;;
27618;SDS011;15039;50.830;4.730;2024-01-16T10:57:55;8.25;;;3.67;;
27618;SDS011;15039;50.830;4.730;2024-01-16T11:00:22;5.78;;;3.45;;
27618;SDS011;15039;50.830;4.730;2024-01-16T11:02:59;10.43;;;3.25;;
27618;SDS011;15039;50.830;4.730;2024-01-16T11:05:31;7.10;;;3.92;;
27618;SDS011;15039;50.830;4.730;2024-01-16T11:07:58;9.80;;;3.85;;
27618;SDS011;15039;50.830;4.730;2024-01-16T11:10:29;4.28;;;2.75;;
27618;SDS011;15039;50.830;4.730;2024-01-16T11:12:56;7.72;;;2.85;;
27618;SDS011;15039;50.830;4.730;2024-01-16T11:15:25;5.78;;;3.00;;
27618;SDS011;15039;50.830;4.730;2024-01-16T11:17:53;4.38;;;2.88;;
27618;SDS011;15039;50.830;4.730;2024-01-16T11:20:21;6.60;;;3.08;;
27618;SDS011;15039;50.830;4.730;2024-01-16T11:22:48;7.60;;;3.00;;
27618;SDS011;15039;50.830;4.730;2024-01-16T11:25:15;3.22;;;2.33;;
27618;SDS011;15039;50.830;4.730;2024-01-16T11:27:44;5.45;;;2.90;;
27618;SDS011;15039;50.830;4.730;2024-01-16T11:30:15;6.18;;;2.78;;
27618;SDS011;15039;50.830;4.730;2024-01-16T11:32:58;5.22;;;2.42;;
27618;SDS011;15039;50.830;4.730;2024-01-16T11:38:06;4.07;;;2.30;;
27618;SDS011;15039;50.830;4.730;2024-01-16T11:40:44;3.83;;;2.97;;
27618;SDS011;15039;50.830;4.730;2024-01-16T11:46:05;12.60;;;2.25;;
27618;SDS011;15039;50.830;4.730;2024-01-16T11:48:35;6.82;;;2.35;;
27618;SDS011;15039;50.830;4.730;2024-01-16T11:51:22;6.63;;;2.78;;
27618;SDS011;15039;50.830;4.730;2024-01-16T11:53:49;6.30;;;3.08;;
27618;SDS011;15039;50.830;4.730;2024-01-16T12:05:20;4.65;;;2.17;;
27618;SDS011;15039;50.830;4.730;2024-01-16T12:07:50;4.43;;;2.22;;
27618;SDS011;15039;50.830;4.730;2024-01-16T12:10:21;4.80;;;2.60;;
27618;SDS011;15039;50.830;4.730;2024-01-16T12:12:48;4.68;;;2.10;;
27618;SDS011;15039;50.830;4.730;2024-01-16T12:15:19;6.72;;;3.42;;
27618;SDS011;15039;50.830;4.730;2024-01-16T12:20:32;6.43;;;3.03;;
27618;SDS011;15039;50.830;4.730;2024-01-16T12:25:26;6.03;;;2.60;;
27618;SDS011;15039;50.830;4.730;2024-01-16T12:27:56;4.95;;;2.35;;
27618;SDS011;15039;50.830;4.730;2024-01-16T12:30:26;5.60;;;2.25;;
27618;SDS011;15039;50.830;4.730;2024-01-16T12:33:14;4.28;;;2.33;;
27618;SDS011;15039;50.830;4.730;2024-01-16T12:35:40;6.97;;;2.35;;
27618;SDS011;15039;50.830;4.730;2024-01-16T12:38:10;3.85;;;2.53;;
27618;SDS011;15039;50.830;4.730;2024-01-16T12:40:42;5.57;;;2.10;;
27618;SDS011;15039;50.830;4.730;2024-01-16T12:43:19;5.57;;;2.72;;
27618;SDS011;15039;50.830;4.730;2024-01-16T12:45:54;3.70;;;2.00;;
27618;SDS011;15039;50.830;4.730;2024-01-16T12:48:26;2.55;;;2.13;;
27618;SDS011;15039;50.830;4.730;2024-01-16T12:50:58;2.85;;;1.90;;
27618;SDS011;15039;50.830;4.730;2024-01-16T12:53:32;3.55;;;2.08;;
27618;SDS011;15039;50.830;4.730;2024-01-16T12:55:59;3.90;;;2.47;;
27618;SDS011;15039;50.830;4.730;2024-01-16T12:58:35;3.58;;;2.20;;
27618;SDS011;15039;50.830;4.730;2024-01-16T13:03:49;5.22;;;2.10;;
27618;SDS011;15039;50.830;4.730;2024-01-16T13:06:22;5.95;;;2.20;;
27618;SDS011;15039;50.830;4.730;2024-01-16T13:08:48;3.15;;;2.05;;
27618;SDS011;15039;50.830;4.730;2024-01-16T13:11:15;4.10;;;2.08;;
27618;SDS011;15039;50.830;4.730;2024-01-16T13:13:44;4.82;;;2.40;;
27618;SDS011;15039;50.830;4.730;2024-01-16T13:16:16;4.35;;;2.42;;
27618;SDS011;15039;50.830;4.730;2024-01-16T13:18:42;4.82;;;2.28;;
27618;SDS011;15039;50.830;4.730;2024-01-16T13:21:08;3.13;;;2.20;;
27618;SDS011;15039;50.830;4.730;2024-01-16T13:23:34;3.75;;;2.20;;
27618;SDS011;15039;50.830;4.730;2024-01-16T13:28:45;5.20;;;2.00;;
27618;SDS011;15039;50.830;4.730;2024-01-16T13:31:22;4.80;;;2.25;;
27618;SDS011;15039;50.830;4.730;2024-01-16T13:34:15;3.88;;;1.88;;
27618;SDS011;15039;50.830;4.730;2024-01-16T13:36:43;3.92;;;2.30;;
27618;SDS011;15039;50.830;4.730;2024-01-16T13:39:08;3.20;;;1.80;;
27618;SDS011;15039;50.830;4.730;2024-01-16T13:41:38;4.20;;;2.08;;
27618;SDS011;15039;50.830;4.730;2024-01-16T13:44:04;3.47;;;1.95;;
27618;SDS011;15039;50.830;4.730;2024-01-16T13:46:30;4.72;;;2.00;;
27618;SDS011;15039;50.830;4.730;2024-01-16T13:48:55;3.28;;;2.15;;
27618;SDS011;15039;50.830;4.730;2024-01-16T13:51:21;6.95;;;2.17;;
27618;SDS011;15039;50.830;4.730;2024-01-16T13:53:48;6.85;;;2.45;;
27618;SDS011;15039;50.830;4.730;2024-01-16T13:56:14;4.75;;;2.10;;
27618;SDS011;15039;50.830;4.730;2024-01-16T13:58:41;3.38;;;2.05;;
27618;SDS011;15039;50.830;4.730;2024-01-16T14:01:07;5.82;;;2.28;;
27618;SDS011;15039;50.830;4.730;2024-01-16T14:03:33;3.10;;;2.08;;
27618;SDS011;15039;50.830;4.730;2024-01-16T14:05:59;4.22;;;2.17;;
27618;SDS011;15039;50.830;4.730;2024-01-16T14:08:25;4.13;;;1.70;;
27618;SDS011;15039;50.830;4.730;2024-01-16T14:10:50;4.57;;;2.25;;
27618;SDS011;15039;50.830;4.730;2024-01-16T14:13:16;4.82;;;2.03;;
27618;SDS011;15039;50.830;4.730;2024-01-16T14:15:43;3.80;;;1.92;;
27618;SDS011;15039;50.830;4.730;2024-01-16T14:18:08;4.82;;;2.20;;
27618;SDS011;15039;50.830;4.730;2024-01-16T14:20:34;4.28;;;1.85;;
27618;SDS011;15039;50.830;4.730;2024-01-16T14:23:01;3.40;;;2.17;;
27618;SDS011;15039;50.830;4.730;2024-01-16T14:25:28;2.05;;;1.80;;
27618;SDS011;15039;50.830;4.730;2024-01-16T14:27:58;3.10;;;2.00;;
27618;SDS011;15039;50.830;4.730;2024-01-16T14:30:26;4.43;;;2.03;;
27618;SDS011;15039;50.830;4.730;2024-01-16T14:32:53;4.82;;;2.20;;
27618;SDS011;15039;50.830;4.730;2024-01-16T14:35:20;3.22;;;1.65;;
27618;SDS011;15039;50.830;4.730;2024-01-16T14:37:46;4.05;;;2.20;;
27618;SDS011;15039;50.830;4.730;2024-01-16T14:40:11;6.10;;;2.00;;
27618;SDS011;15039;50.830;4.730;2024-01-16T14:42:41;4.72;;;1.95;;
27618;SDS011;15039;50.830;4.730;2024-01-16T14:45:12;3.70;;;1.90;;
27618;SDS011;15039;50.830;4.730;2024-01-16T14:47:41;3.35;;;1.77;;
27618;SDS011;15039;50.830;4.730;2024-01-16T14:50:08;5.10;;;2.20;;
27618;SDS011;15039;50.830;4.730;2024-01-16T14:52:35;3.55;;;1.98;;
27618;SDS011;15039;50.830;4.730;2024-01-16T14:55:01;4.10;;;2.08;;
27618;SDS011;15039;50.830;4.730;2024-01-16T14:57:27;5.20;;;1.75;;
27618;SDS011;15039;50.830;4.730;2024-01-16T14:59:55;4.10;;;2.15;;
27618;SDS011;15039;50.830;4.730;2024-01-16T15:02:21;3.97;;;2.00;;
27618;SDS011;15039;50.830;4.730;2024-01-16T15:05:07;4.30;;;2.28;;
27618;SDS011;15039;50.830;4.730;2024-01-16T15:07:33;2.63;;;1.90;;
27618;SDS011;15039;50.830;4.730;2024-01-16T15:09:59;2.35;;;2.00;;
27618;SDS011;15039;50.830;4.730;2024-01-16T15:12:26;5.80;;;2.25;;
27618;SDS011;15039;50.830;4.730;2024-01-16T15:14:51;2.80;;;2.05;;
27618;SDS011;15039;50.830;4.730;2024-01-16T15:17:17;4.82;;;2.22;;
27618;SDS011;15039;50.830;4.730;2024-01-16T15:19:43;2.70;;;2.08;;
27618;SDS011;15039;50.830;4.730;2024-01-16T15:22:08;4.28;;;2.13;;
27618;SDS011;15039;50.830;4.730;2024-01-16T15:24:34;3.65;;;2.13;;
27618;SDS011;15039;50.830;4.730;2024-01-16T15:27:00;3.50;;;1.88;;
27618;SDS011;15039;50.830;4.730;2024-01-16T15:29:26;4.50;;;1.70;;
27618;SDS011;15039;50.830;4.730;2024-01-16T15:31:52;2.85;;;1.77;;
27618;SDS011;15039;50.830;4.730;2024-01-16T15:34:18;3.70;;;1.77;;
27618;SDS011;15039;50.830;4.730;2024-01-16T15:36:44;4.72;;;2.45;;
27618;SDS011;15039;50.830;4.730;2024-01-16T15:39:11;3.95;;;2.15;;
27618;SDS011;15039;50.830;4.730;2024-01-16T15:41:40;3.75;;;2.10;;
27618;SDS011;15039;50.830;4.730;2024-01-16T15:44:10;3.53;;;2.08;;
27618;SDS011;15039;50.830;4.730;2024-01-16T15:49:27;3.65;;;2.05;;
27618;SDS011;15039;50.830;4.730;2024-01-16T15:51:54;5.75;;;2.63;;